Time;durP1;ratioP1;P1;durP2;ratioP2;P2;SDS_P1;SDS_P2;PMS_P1;PMS_P2;Temp;Humidity;BMP_temperature;BMP_pressure;BME280_temperature;BME280_humidity;BME280_pressure;Samples;Min_cycle;Max_cycle;Signal;HPM_P1;HPM_P2
2023/05/14 00:01:46;;;;;;;11.02;6.18;;;13.00;99.90;;;;;;5012501;28;20030;-51
2023/05/14 00:04:11;;;;;;;10.30;6.85;;;12.90;99.90;;;;;;5012515;28;20049;-53
2023/05/14 00:06:37;;;;;;;10.45;7.20;;;12.90;99.90;;;;;;5012389;28;20100;-55
2023/05/14 00:09:03;;;;;;;8.18;6.60;;;12.90;99.90;;;;;;5012175;28;20514;-49
2023/05/14 00:11:29;;;;;;;8.20;6.90;;;12.90;99.90;;;;;;5010956;28;20030;-49
2023/05/14 00:13:54;;;;;;;11.93;7.95;;;12.80;99.90;;;;;;5012289;28;20095;-50
2023/05/14 00:16:20;;;;;;;10.10;7.30;;;12.80;99.90;;;;;;5011064;28;20501;-50
2023/05/14 00:18:45;;;;;;;12.63;7.22;;;12.80;99.90;;;;;;5011743;28;20422;-54
2023/05/14 00:21:11;;;;;;;10.10;7.22;;;12.80;99.90;;;;;;5010670;28;20489;-49
2023/05/14 00:23:37;;;;;;;9.00;6.75;;;12.80;99.90;;;;;;5012083;28;20030;-48
2023/05/14 00:26:03;;;;;;;7.90;6.57;;;12.80;99.90;;;;;;5011911;28;20071;-55
2023/05/14 00:28:29;;;;;;;8.55;7.25;;;12.70;99.90;;;;;;5011507;28;20026;-49
2023/05/14 00:30:55;;;;;;;8.15;6.13;;;12.60;99.90;;;;;;5010581;28;20030;-51
2023/05/14 00:33:21;;;;;;;9.70;7.65;;;12.60;99.90;;;;;;5011891;28;20025;-51
2023/05/14 00:35:47;;;;;;;11.43;8.18;;;12.40;99.90;;;;;;5012166;28;20029;-53
2023/05/14 00:38:15;;;;;;;9.93;7.53;;;12.30;99.90;;;;;;5039584;22;20052;-44
2023/05/14 00:40:44;;;;;;;13.77;8.07;;;12.20;99.90;;;;;;5030189;28;20022;-44
2023/05/14 00:43:10;;;;;;;8.65;6.75;;;12.00;99.90;;;;;;5031387;28;20021;-49
2023/05/14 00:45:36;;;;;;;8.82;7.18;;;12.00;99.90;;;;;;5031327;28;20029;-44
2023/05/14 00:48:02;;;;;;;10.43;7.35;;;12.00;99.90;;;;;;5039275;28;20078;-45
2023/05/14 00:50:27;;;;;;;8.52;7.60;;;12.00;99.90;;;;;;5051370;28;20078;-43
2023/05/14 00:52:53;;;;;;;9.20;7.22;;;12.00;99.90;;;;;;5051013;28;20025;-40
2023/05/14 00:55:20;;;;;;;13.40;7.57;;;12.00;99.90;;;;;;5051381;28;20152;-40
2023/05/14 00:57:45;;;;;;;10.63;8.20;;;12.00;99.90;;;;;;5050919;28;20401;-44
2023/05/14 01:00:11;;;;;;;12.00;8.48;;;12.00;99.90;;;;;;5051203;28;20036;-46
2023/05/14 01:02:37;;;;;;;10.82;7.55;;;12.00;99.90;;;;;;5049433;28;20033;-45
2023/05/14 01:05:02;;;;;;;10.25;8.02;;;11.90;99.90;;;;;;5051145;28;20440;-44
2023/05/14 01:07:28;;;;;;;9.23;8.40;;;12.00;99.90;;;;;;5050703;28;20033;-41
2023/05/14 01:10:01;;;;;;;10.90;8.02;;;11.80;99.90;;;;;;5054194;28;20492;-42
2023/05/14 01:13:13;;;;;;;15.25;9.25;;;11.70;99.90;;;;;;5055263;28;20037;-45
2023/05/14 01:15:40;;;;;;;11.93;8.32;;;11.70;99.90;;;;;;5051150;28;20033;-41
2023/05/14 01:18:12;;;;;;;10.80;8.50;;;11.60;99.90;;;;;;5052933;28;20431;-42
2023/05/14 01:20:37;;;;;;;9.50;7.95;;;11.50;99.90;;;;;;5055581;28;20029;-42
2023/05/14 01:23:03;;;;;;;11.70;9.00;;;11.50;99.90;;;;;;5055374;28;20049;-45
2023/05/14 01:25:29;;;;;;;19.25;9.02;;;11.50;99.90;;;;;;5055054;28;20551;-43
2023/05/14 01:28:07;;;;;;;11.95;9.23;;;11.50;99.90;;;;;;5054888;28;20151;-43
2023/05/14 01:30:36;;;;;;;11.48;8.57;;;11.50;99.90;;;;;;5055697;28;20017;-44
2023/05/14 01:33:11;;;;;;;11.55;8.35;;;11.60;99.90;;;;;;5055110;28;20079;-43
2023/05/14 01:35:37;;;;;;;14.63;9.25;;;11.50;99.90;;;;;;5053920;28;20095;-46
2023/05/14 01:38:14;;;;;;;13.05;10.32;;;11.50;99.90;;;;;;5054578;28;20037;-45
2023/05/14 01:40:41;;;;;;;10.55;9.18;;;11.50;99.90;;;;;;5055427;28;20033;-43
2023/05/14 01:43:07;;;;;;;11.65;9.57;;;11.50;99.90;;;;;;5055645;28;20056;-47
2023/05/14 01:45:35;;;;;;;9.88;8.98;;;11.50;99.90;;;;;;5055682;28;20029;-45
2023/05/14 01:48:00;;;;;;;10.13;9.02;;;11.40;99.90;;;;;;5054351;28;20408;-47
2023/05/14 01:50:26;;;;;;;16.48;9.07;;;11.50;99.90;;;;;;5054809;28;20021;-49
2023/05/14 01:52:58;;;;;;;15.55;10.20;;;11.40;99.90;;;;;;5054206;28;20025;-43
2023/05/14 01:55:24;;;;;;;13.60;9.13;;;11.40;99.90;;;;;;5054590;28;20404;-47
2023/05/14 01:57:51;;;;;;;10.85;9.07;;;11.40;99.90;;;;;;5054348;28;20039;-44
2023/05/14 02:00:16;;;;;;;13.57;9.38;;;11.40;99.90;;;;;;5054448;28;20056;-41
2023/05/14 02:02:42;;;;;;;12.80;9.07;;;11.40;99.90;;;;;;5052803;28;20064;-46
2023/05/14 02:05:09;;;;;;;12.85;8.32;;;11.40;99.90;;;;;;5054578;28;20401;-44
2023/05/14 02:07:35;;;;;;;11.65;9.75;;;11.40;99.90;;;;;;5053833;28;20397;-44
2023/05/14 02:10:00;;;;;;;11.43;8.63;;;11.40;99.90;;;;;;5054129;28;20031;-43
2023/05/14 02:12:26;;;;;;;17.77;9.02;;;11.40;99.90;;;;;;5052444;28;20138;-44
2023/05/14 02:14:51;;;;;;;19.50;8.93;;;11.40;99.90;;;;;;5054051;28;20473;-41
2023/05/14 02:17:17;;;;;;;10.65;8.95;;;11.40;99.90;;;;;;5051271;28;20473;-38
2023/05/14 02:19:45;;;;;;;13.10;8.38;;;11.40;99.90;;;;;;5053383;28;20025;-44
2023/05/14 02:22:11;;;;;;;11.40;8.77;;;11.50;99.90;;;;;;5052958;28;20036;-44
2023/05/14 02:24:37;;;;;;;11.88;8.48;;;11.40;99.90;;;;;;5053748;28;20021;-44
2023/05/14 02:27:03;;;;;;;9.45;7.82;;;11.40;99.90;;;;;;5053837;28;20100;-47
2023/05/14 02:29:28;;;;;;;10.80;9.68;;;11.40;99.90;;;;;;5052754;28;20138;-43
2023/05/14 02:31:54;;;;;;;9.93;8.07;;;11.40;99.90;;;;;;5053590;28;20059;-42
2023/05/14 02:34:20;;;;;;;9.95;7.90;;;11.40;99.90;;;;;;5053637;28;20554;-44
2023/05/14 02:36:45;;;;;;;9.85;7.60;;;11.40;99.90;;;;;;5053621;28;20025;-45
2023/05/14 02:39:10;;;;;;;12.30;9.00;;;11.40;99.90;;;;;;5053319;28;20041;-45
2023/05/14 02:41:36;;;;;;;9.52;8.27;;;11.40;99.90;;;;;;5053504;28;20128;-44
2023/05/14 02:44:01;;;;;;;9.23;8.30;;;11.40;99.90;;;;;;5053411;28;20021;-46
2023/05/14 02:46:27;;;;;;;14.13;8.65;;;11.40;99.90;;;;;;5053375;28;20029;-42
2023/05/14 02:48:52;;;;;;;10.38;8.13;;;11.40;99.90;;;;;;5053142;28;20049;-41
2023/05/14 02:51:21;;;;;;;11.95;8.65;;;11.40;99.90;;;;;;5052943;28;20028;-44
2023/05/14 02:53:47;;;;;;;12.65;8.82;;;11.50;99.90;;;;;;5053389;28;20021;-42
2023/05/14 02:56:13;;;;;;;9.65;8.50;;;11.50;99.90;;;;;;5053461;28;20035;-44
2023/05/14 02:58:38;;;;;;;13.60;10.00;;;11.50;99.90;;;;;;5052766;28;20452;-43
2023/05/14 03:01:04;;;;;;;12.27;9.13;;;11.40;99.90;;;;;;5052953;28;20047;-43
2023/05/14 03:03:29;;;;;;;13.75;9.68;;;11.40;99.90;;;;;;5053153;28;20099;-44
2023/05/14 03:05:55;;;;;;;14.55;9.35;;;11.40;99.90;;;;;;5052844;28;20246;-46
2023/05/14 03:08:20;;;;;;;11.55;9.30;;;11.30;99.90;;;;;;5052577;28;20024;-45
2023/05/14 03:10:46;;;;;;;13.15;9.95;;;11.30;99.90;;;;;;5052751;28;20048;-39
2023/05/14 03:13:12;;;;;;;10.13;8.63;;;11.40;99.90;;;;;;5052955;28;20444;-42
2023/05/14 03:15:37;;;;;;;11.63;9.35;;;11.30;99.90;;;;;;5052722;28;20090;-43
2023/05/14 03:18:03;;;;;;;13.23;7.82;;;11.20;99.90;;;;;;5051811;28;20071;-43
2023/05/14 03:20:28;;;;;;;11.65;8.65;;;11.20;99.90;;;;;;5051527;28;20020;-45
2023/05/14 03:22:54;;;;;;;9.38;8.52;;;11.20;99.90;;;;;;5052279;28;20036;-41
2023/05/14 03:25:20;;;;;;;9.15;8.25;;;11.10;99.90;;;;;;5052523;28;20028;-42
2023/05/14 03:27:46;;;;;;;11.65;8.57;;;11.00;99.90;;;;;;5052265;28;20021;-43
2023/05/14 03:30:11;;;;;;;10.60;9.30;;;11.00;99.90;;;;;;5052609;28;20028;-43
2023/05/14 03:32:37;;;;;;;12.80;9.07;;;10.90;99.90;;;;;;5051805;28;20025;-44
2023/05/14 03:35:03;;;;;;;10.60;9.50;;;10.90;99.90;;;;;;5052449;28;20021;-47
2023/05/14 03:37:28;;;;;;;10.80;9.50;;;10.90;99.90;;;;;;5051854;28;20457;-42
2023/05/14 03:39:54;;;;;;;12.25;10.23;;;10.90;99.90;;;;;;5051309;28;20036;-43
2023/05/14 03:42:19;;;;;;;11.65;9.10;;;10.90;99.90;;;;;;5052132;28;20033;-43
2023/05/14 03:44:45;;;;;;;10.50;8.82;;;10.90;99.90;;;;;;5052201;28;20025;-43
2023/05/14 03:47:10;;;;;;;8.95;8.15;;;10.90;99.90;;;;;;5052327;28;20492;-41
2023/05/14 03:49:36;;;;;;;11.10;9.43;;;10.90;99.90;;;;;;5061861;28;20048;-43
2023/05/14 03:52:01;;;;;;;9.95;8.85;;;10.90;99.90;;;;;;5051993;28;20036;-47
2023/05/14 03:54:27;;;;;;;16.25;9.52;;;10.90;99.90;;;;;;5052144;28;20519;-42
2023/05/14 03:56:52;;;;;;;12.77;9.18;;;10.90;99.90;;;;;;5052244;28;20060;-44
2023/05/14 03:59:18;;;;;;;10.80;9.73;;;10.90;99.90;;;;;;5051689;28;20025;-46
2023/05/14 04:01:43;;;;;;;12.75;9.27;;;10.90;99.90;;;;;;5051645;28;20436;-43
2023/05/14 04:04:09;;;;;;;10.73;9.18;;;10.90;99.90;;;;;;5051582;28;20033;-42
2023/05/14 04:06:35;;;;;;;10.38;9.02;;;10.90;99.90;;;;;;5051891;28;20021;-43
2023/05/14 04:09:00;;;;;;;15.55;9.32;;;10.90;99.90;;;;;;5050214;28;20032;-44
2023/05/14 04:11:26;;;;;;;12.55;9.43;;;11.00;99.90;;;;;;5051521;28;20500;-45
2023/05/14 04:13:51;;;;;;;10.40;9.35;;;11.00;99.90;;;;;;5051759;28;20053;-43
2023/05/14 04:16:17;;;;;;;11.80;9.27;;;11.00;99.90;;;;;;5050532;28;20025;-42
2023/05/14 04:18:42;;;;;;;11.10;8.90;;;11.00;99.90;;;;;;5051068;28;20025;-45
2023/05/14 04:21:08;;;;;;;11.27;9.10;;;10.90;99.90;;;;;;5049591;28;20021;-42
2023/05/14 04:23:33;;;;;;;10.63;9.15;;;10.90;99.90;;;;;;5050136;28;20060;-43
2023/05/14 04:25:59;;;;;;;14.55;9.00;;;11.00;99.90;;;;;;5051432;28;20132;-43
2023/05/14 04:28:25;;;;;;;10.43;8.88;;;11.00;99.90;;;;;;5050960;28;20036;-44
2023/05/14 04:30:51;;;;;;;10.25;9.25;;;11.00;99.90;;;;;;5051446;28;20098;-43
2023/05/14 04:33:16;;;;;;;11.90;8.43;;;10.90;99.90;;;;;;5051478;28;20013;-42
2023/05/14 04:35:43;;;;;;;10.93;9.15;;;10.90;99.90;;;;;;5051584;28;20495;-42
2023/05/14 04:38:10;;;;;;;9.27;8.38;;;10.90;99.90;;;;;;5050897;28;20032;-43
2023/05/14 04:40:35;;;;;;;11.85;8.60;;;11.00;99.90;;;;;;5051423;28;20451;-42
2023/05/14 04:43:01;;;;;;;9.25;8.35;;;11.00;99.90;;;;;;5050497;28;20103;-43
2023/05/14 04:45:27;;;;;;;10.75;9.10;;;11.00;99.90;;;;;;5050976;28;20067;-42
2023/05/14 04:47:52;;;;;;;9.73;8.65;;;11.10;99.90;;;;;;5050887;28;20111;-43
2023/05/14 04:50:17;;;;;;;8.18;7.38;;;11.40;99.90;;;;;;5051473;28;20028;-44
2023/05/14 04:52:43;;;;;;;8.20;7.43;;;11.80;99.90;;;;;;5050882;28;20025;-44
2023/05/14 04:55:09;;;;;;;9.60;7.38;;;12.30;99.90;;;;;;5050089;28;20025;-42
2023/05/14 04:57:34;;;;;;;10.10;7.30;;;12.70;99.90;;;;;;5050711;28;20397;-43
2023/05/14 05:00:00;;;;;;;7.38;6.65;;;13.20;99.90;;;;;;5051296;28;20103;-45
2023/05/14 05:02:25;;;;;;;7.43;6.70;;;13.20;99.90;;;;;;5050954;28;20048;-41
2023/05/14 05:04:50;;;;;;;8.02;7.30;;;12.90;99.90;;;;;;5049880;28;20532;-44
2023/05/14 05:07:16;;;;;;;9.00;7.30;;;12.50;99.90;;;;;;5050724;28;20104;-45
2023/05/14 05:09:42;;;;;;;10.95;7.47;;;12.30;99.90;;;;;;5051217;28;20032;-42
2023/05/14 05:12:08;;;;;;;7.78;6.78;;;12.00;99.90;;;;;;5050742;28;20052;-41
2023/05/14 05:14:34;;;;;;;9.52;6.72;;;11.80;99.90;;;;;;5049470;28;20029;-42
2023/05/14 05:16:59;;;;;;;9.90;7.10;;;11.60;99.90;;;;;;5049743;28;20032;-46
2023/05/14 05:19:25;;;;;;;8.00;6.85;;;11.50;99.90;;;;;;5050324;28;20094;-45
2023/05/14 05:21:51;;;;;;;8.55;7.50;;;11.50;99.90;;;;;;5049352;28;20029;-42
2023/05/14 05:24:16;;;;;;;9.27;7.97;;;11.40;99.90;;;;;;5051071;28;20035;-41
2023/05/14 05:26:42;;;;;;;9.57;8.02;;;11.40;99.90;;;;;;5051182;28;20071;-44
2023/05/14 05:29:07;;;;;;;11.02;7.68;;;11.40;99.90;;;;;;5050648;28;20025;-47
2023/05/14 05:31:33;;;;;;;9.82;8.18;;;11.50;99.90;;;;;;5050655;28;20057;-44
2023/05/14 05:33:59;;;;;;;8.88;6.95;;;11.60;99.90;;;;;;5051234;28;20043;-43
2023/05/14 05:36:24;;;;;;;9.35;8.43;;;11.80;99.90;;;;;;5050938;28;20025;-42
2023/05/14 05:38:50;;;;;;;14.00;8.10;;;11.90;99.90;;;;;;5050371;28;20151;-47
2023/05/14 05:41:15;;;;;;;9.43;7.85;;;12.00;99.90;;;;;;5050468;28;20025;-45
2023/05/14 05:43:41;;;;;;;15.82;7.88;;;12.20;99.90;;;;;;5049727;28;20029;-45
2023/05/14 05:46:06;;;;;;;8.77;6.93;;;12.50;99.90;;;;;;5051003;28;20404;-45
2023/05/14 05:48:32;;;;;;;7.65;6.88;;;12.80;99.90;;;;;;5050387;28;20036;-47
2023/05/14 05:50:57;;;;;;;8.73;7.47;;;12.90;99.90;;;;;;5049344;28;20125;-42
2023/05/14 05:53:23;;;;;;;8.88;7.20;;;12.90;99.90;;;;;;5050749;28;20056;-42
2023/05/14 05:55:50;;;;;;;8.35;7.20;;;12.80;99.90;;;;;;5053214;28;20017;-42
2023/05/14 05:58:18;;;;;;;8.63;7.25;;;12.70;99.90;;;;;;5053652;28;20075;-38
2023/05/14 06:00:45;;;;;;;7.70;6.90;;;12.70;99.90;;;;;;5054089;28;20597;-47
2023/05/14 06:03:12;;;;;;;9.82;6.85;;;12.70;99.90;;;;;;5052616;28;20031;-42
2023/05/14 06:05:37;;;;;;;6.57;5.97;;;12.70;99.90;;;;;;5054132;28;20443;-42
2023/05/14 06:08:03;;;;;;;7.80;6.88;;;12.90;99.90;;;;;;5053738;28;20032;-42
2023/05/14 06:10:28;;;;;;;16.98;7.30;;;13.10;99.90;;;;;;5054219;28;20029;-44
2023/05/14 06:12:54;;;;;;;7.25;6.55;;;13.00;99.90;;;;;;5052573;28;20025;-42
2023/05/14 06:15:20;;;;;;;10.45;7.57;;;13.00;99.90;;;;;;5054222;28;20075;-43
2023/05/14 06:17:45;;;;;;;9.38;7.35;;;12.90;99.90;;;;;;5052568;28;20061;-42
2023/05/14 06:20:11;;;;;;;6.97;6.38;;;12.80;99.90;;;;;;5053884;28;20029;-44
2023/05/14 06:22:36;;;;;;;7.63;5.95;;;12.90;99.90;;;;;;5053709;28;20063;-42
2023/05/14 06:25:03;;;;;;;7.57;6.00;;;13.40;99.90;;;;;;5053660;28;20120;-44
2023/05/14 06:27:28;;;;;;;8.70;6.10;;;14.00;99.90;;;;;;5053398;28;20021;-43
2023/05/14 06:29:54;;;;;;;7.85;5.78;;;14.50;99.90;;;;;;5053864;28;20036;-43
2023/05/14 06:32:19;;;;;;;6.25;5.65;;;14.80;99.90;;;;;;5053462;28;20501;-46
2023/05/14 06:34:45;;;;;;;5.70;4.97;;;16.00;99.90;;;;;;5053584;28;20412;-43
2023/05/14 06:37:11;;;;;;;6.35;4.45;;;17.50;99.90;;;;;;5053450;28;20021;-45
2023/05/14 06:39:37;;;;;;;7.15;4.50;;;19.00;99.90;;;;;;5040109;22;20049;-49
2023/05/14 06:42:03;;;;;;;5.53;3.90;;;20.20;99.90;;;;;;5012161;28;20393;-47
2023/05/14 06:44:28;;;;;;;6.15;3.90;;;20.90;99.90;;;;;;5013783;28;20033;-50
2023/05/14 06:46:54;;;;;;;4.10;3.63;;;21.20;99.00;;;;;;5013860;28;20033;-49
2023/05/14 06:49:20;;;;;;;5.65;3.50;;;21.90;98.50;;;;;;5013393;28;20096;-48
2023/05/14 06:51:45;;;;;;;5.85;3.40;;;22.50;97.30;;;;;;5012305;28;20113;-52
2023/05/14 06:54:11;;;;;;;3.78;3.30;;;22.90;96.50;;;;;;5013603;28;20026;-54
2023/05/14 06:56:36;;;;;;;3.35;3.05;;;23.60;95.10;;;;;;5013626;28;20165;-49
2023/05/14 06:59:02;;;;;;;3.92;2.70;;;23.90;94.60;;;;;;5013231;28;20025;-54
2023/05/14 07:01:27;;;;;;;4.07;2.88;;;24.00;93.80;;;;;;5013162;28;20018;-52
2023/05/14 07:03:53;;;;;;;3.10;2.80;;;24.20;93.80;;;;;;5013653;28;20025;-51
2023/05/14 07:06:19;;;;;;;3.00;2.45;;;24.30;92.50;;;;;;5012752;28;20371;-52
2023/05/14 07:08:44;;;;;;;4.38;3.08;;;24.30;92.50;;;;;;5013140;28;20490;-49
2023/05/14 07:11:12;;;;;;;3.65;2.50;;;23.80;92.80;;;;;;5013182;28;20393;-51
2023/05/14 07:13:37;;;;;;;2.45;2.33;;;23.60;93.60;;;;;;5013542;28;20556;-47
2023/05/14 07:16:03;;;;;;;3.00;2.58;;;23.20;92.80;;;;;;5012156;28;20042;-56
2023/05/14 07:18:29;;;;;;;2.70;2.33;;;23.10;93.50;;;;;;5012902;28;20513;-50
2023/05/14 07:20:54;;;;;;;3.45;2.90;;;23.30;93.50;;;;;;5011703;28;20029;-48
2023/05/14 07:23:20;;;;;;;7.10;2.47;;;23.30;92.90;;;;;;5013223;28;20034;-50
2023/05/14 07:25:45;;;;;;;2.40;2.30;;;23.20;92.80;;;;;;5011728;28;20569;-54
2023/05/14 07:28:11;;;;;;;3.53;3.13;;;22.70;92.90;;;;;;5012694;28;20544;-50
2023/05/14 07:30:36;;;;;;;2.50;2.30;;;23.30;92.60;;;;;;5011792;28;20121;-50
2023/05/14 07:33:02;;;;;;;3.00;2.70;;;23.30;93.30;;;;;;5011470;28;20398;-51
2023/05/14 07:35:27;;;;;;;5.05;2.40;;;23.40;92.70;;;;;;5012996;28;20523;-51
2023/05/14 07:37:53;;;;;;;2.42;2.22;;;23.50;92.00;;;;;;5012440;28;20033;-49
2023/05/14 07:40:18;;;;;;;4.15;2.70;;;24.00;92.20;;;;;;5012133;28;20028;-52
2023/05/14 07:42:44;;;;;;;5.00;2.40;;;24.60;91.20;;;;;;5012569;28;20061;-52
2023/05/14 07:45:09;;;;;;;4.43;2.72;;;24.80;90.60;;;;;;5012609;28;20029;-52
2023/05/14 07:47:35;;;;;;;2.75;2.50;;;24.80;90.50;;;;;;5012304;28;20079;-52
2023/05/14 07:50:00;;;;;;;2.47;2.28;;;24.80;90.00;;;;;;5012943;28;20022;-48
2023/05/14 07:52:26;;;;;;;4.30;2.55;;;24.60;90.40;;;;;;5012294;28;20037;-52
2023/05/14 07:54:52;;;;;;;3.05;2.72;;;24.90;89.70;;;;;;5009043;28;20191;-48
2023/05/14 07:57:18;;;;;;;3.58;3.28;;;24.10;89.30;;;;;;5009146;28;20543;-48
2023/05/14 07:59:43;;;;;;;3.45;2.67;;;24.00;89.70;;;;;;5011432;28;20112;-49
2023/05/14 08:02:11;;;;;;;2.28;2.08;;;23.40;91.40;;;;;;5003686;28;20053;-52
2023/05/14 08:04:37;;;;;;;2.55;2.35;;;24.00;90.50;;;;;;5010348;28;20061;-54
2023/05/14 08:07:02;;;;;;;3.42;2.38;;;24.30;90.10;;;;;;4992744;28;20027;-52
2023/05/14 08:09:28;;;;;;;2.63;2.30;;;24.90;90.10;;;;;;5009422;28;20056;-51
2023/05/14 08:11:53;;;;;;;2.17;2.08;;;25.10;87.50;;;;;;5012215;28;20032;-47
2023/05/14 08:14:20;;;;;;;1.77;1.67;;;25.50;86.20;;;;;;5012067;28;20030;-49
2023/05/14 08:16:46;;;;;;;3.72;2.40;;;25.70;85.80;;;;;;5012445;28;20482;-49
2023/05/14 08:19:12;;;;;;;3.35;2.63;;;25.60;85.40;;;;;;5010936;28;20044;-48
2023/05/14 08:21:37;;;;;;;2.42;2.22;;;25.40;86.30;;;;;;5011826;28;20556;-52
2023/05/14 08:24:03;;;;;;;2.55;2.35;;;25.20;87.20;;;;;;5011977;28;20028;-49
2023/05/14 08:26:28;;;;;;;3.03;2.22;;;24.70;85.60;;;;;;5012069;28;20033;-50
2023/05/14 08:28:54;;;;;;;2.85;2.47;;;24.80;86.80;;;;;;5011528;28;20041;-48
2023/05/14 08:31:19;;;;;;;2.70;2.35;;;24.40;86.70;;;;;;5010544;28;20577;-54
2023/05/14 08:33:45;;;;;;;3.58;2.42;;;23.80;87.50;;;;;;5010494;28;20108;-48
2023/05/14 08:36:10;;;;;;;2.40;2.20;;;22.40;90.40;;;;;;5012073;28;20508;-48
2023/05/14 08:38:36;;;;;;;3.35;2.88;;;22.40;91.20;;;;;;5010287;28;20041;-50
2023/05/14 08:41:05;;;;;;;2.75;2.53;;;22.60;91.60;;;;;;5011824;28;20026;-51
2023/05/14 08:43:49;;;;;;;3.33;2.95;;;22.40;91.80;;;;;;5011978;28;20490;-51
2023/05/14 08:46:16;;;;;;;2.87;2.67;;;22.80;91.80;;;;;;5010753;28;20437;-50
2023/05/14 08:48:46;;;;;;;2.65;2.45;;;22.00;91.60;;;;;;5011533;28;20061;-55
2023/05/14 08:51:12;;;;;;;2.97;2.75;;;21.90;91.80;;;;;;5010181;28;20030;-55
2023/05/14 08:53:39;;;;;;;3.72;2.60;;;21.50;92.30;;;;;;5011188;28;20029;-50
2023/05/14 08:56:06;;;;;;;2.80;2.60;;;21.20;92.30;;;;;;5011828;28;20037;-50
2023/05/14 08:58:32;;;;;;;3.75;3.05;;;20.90;92.60;;;;;;5011360;28;20061;-48
2023/05/14 09:00:58;;;;;;;2.95;2.75;;;20.60;93.60;;;;;;5043374;28;20111;-48
2023/05/14 09:03:24;;;;;;;3.70;3.15;;;20.10;94.20;;;;;;5011676;28;20041;-52
2023/05/14 09:05:50;;;;;;;3.22;3.00;;;19.70;95.50;;;;;;5009789;28;20176;-54
2023/05/14 09:08:16;;;;;;;4.45;3.25;;;19.30;96.30;;;;;;5011259;28;20401;-49
2023/05/14 09:10:42;;;;;;;29.55;20.27;;;19.30;96.70;;;;;;5011650;28;20112;-54
2023/05/14 09:13:08;;;;;;;20.15;16.48;;;19.10;96.30;;;;;;5011261;28;20605;-54
2023/05/14 09:15:36;;;;;;;6.43;5.38;;;19.00;97.00;;;;;;5011803;28;20030;-54
2023/05/14 09:18:04;;;;;;;3.55;3.28;;;18.80;97.60;;;;;;5011293;28;20053;-52
2023/05/14 09:20:31;;;;;;;3.13;2.92;;;19.00;97.20;;;;;;5009906;28;20026;-48
2023/05/14 09:22:58;;;;;;;4.57;2.88;;;19.50;96.60;;;;;;5011372;28;20034;-53
2023/05/14 09:25:30;;;;;;;9.05;2.72;;;19.90;96.40;;;;;;5011816;28;20029;-51
2023/05/14 09:27:56;;;;;;;3.20;2.90;;;20.40;94.90;;;;;;5011568;28;20033;-49
2023/05/14 09:30:23;;;;;;;3.58;3.00;;;20.10;94.50;;;;;;5014056;28;20028;-47
2023/05/14 09:32:51;;;;;;;3.33;3.00;;;19.60;95.40;;;;;;5016975;28;20087;-48
2023/05/14 09:35:20;;;;;;;2.97;2.78;;;19.10;96.30;;;;;;5018350;28;20466;-46
2023/05/14 09:37:51;;;;;;;6.07;3.70;;;18.80;97.00;;;;;;5018155;28;20030;-50
2023/05/14 09:40:18;;;;;;;4.10;3.15;;;18.70;97.40;;;;;;5018989;28;20425;-50
2023/05/14 09:42:44;;;;;;;5.95;3.55;;;18.70;98.00;;;;;;5016810;28;20524;-48
2023/05/14 09:45:10;;;;;;;2.95;2.70;;;18.70;97.90;;;;;;5014400;28;20498;-47
2023/05/14 09:47:36;;;;;;;3.53;3.22;;;18.90;97.90;;;;;;5015671;28;20022;-46
2023/05/14 09:50:03;;;;;;;3.45;3.15;;;18.90;98.00;;;;;;5014117;28;20025;-48
2023/05/14 09:52:29;;;;;;;3.65;3.35;;;18.50;98.20;;;;;;5014732;28;20092;-51
2023/05/14 09:54:54;;;;;;;4.05;2.92;;;18.30;99.20;;;;;;5002201;28;20038;-50
2023/05/14 09:57:20;;;;;;;3.00;2.80;;;18.30;98.90;;;;;;5011398;28;20076;-51
2023/05/14 09:59:45;;;;;;;3.40;3.10;;;18.10;99.10;;;;;;5015123;28;20022;-54
2023/05/14 10:02:21;;;;;;;12.05;8.98;;;18.40;99.10;;;;;;5013516;28;20109;-50
2023/05/14 10:04:52;;;;;;;4.15;3.47;;;18.80;97.60;;;;;;5014422;28;20040;-49
2023/05/14 10:07:21;;;;;;;5.00;2.78;;;19.10;97.50;;;;;;5012655;28;20141;-49
2023/05/14 10:09:47;;;;;;;2.80;2.60;;;19.40;97.20;;;;;;5011436;28;20064;-54
2023/05/14 10:12:18;;;;;;;2.92;2.58;;;19.40;96.70;;;;;;5014199;28;20034;-47
2023/05/14 10:14:48;;;;;;;3.15;2.50;;;19.30;96.60;;;;;;5013255;28;20041;-53
2023/05/14 10:17:17;;;;;;;5.60;2.50;;;19.10;96.70;;;;;;5014192;28;20563;-47
2023/05/14 10:19:53;;;;;;;2.67;2.47;;;18.70;96.10;;;;;;5014492;28;20026;-52
2023/05/14 10:22:29;;;;;;;3.05;2.83;;;18.70;96.70;;;;;;5013542;28;20030;-52
2023/05/14 10:24:55;;;;;;;3.38;2.33;;;18.80;97.10;;;;;;5014177;28;20497;-52
2023/05/14 10:27:22;;;;;;;2.83;2.53;;;18.70;96.90;;;;;;5013217;28;20034;-51
2023/05/14 10:29:53;;;;;;;2.55;2.30;;;18.50;97.10;;;;;;5009628;28;20034;-50
2023/05/14 10:32:19;;;;;;;2.50;2.30;;;18.40;97.00;;;;;;4993789;28;20117;-49
2023/05/14 10:34:45;;;;;;;2.35;2.17;;;18.30;97.50;;;;;;5013516;28;20037;-48
2023/05/14 10:37:20;;;;;;;2.92;2.70;;;18.20;97.30;;;;;;5013953;28;20029;-47
2023/05/14 10:40:00;;;;;;;3.05;2.85;;;18.30;97.30;;;;;;5014727;28;20421;-52
2023/05/14 10:42:34;;;;;;;3.90;2.92;;;18.00;98.90;;;;;;5012177;28;20101;-48
2023/05/14 10:45:06;;;;;;;3.53;3.22;;;17.60;99.70;;;;;;5013715;28;20442;-53
2023/05/14 10:47:32;;;;;;;4.88;3.78;;;17.70;99.90;;;;;;5012893;28;20050;-50
2023/05/14 10:49:59;;;;;;;2.90;2.70;;;17.70;99.90;;;;;;4998972;28;20060;-48
2023/05/14 10:52:25;;;;;;;3.20;3.00;;;17.70;99.90;;;;;;5013266;28;20054;-49
2023/05/14 10:55:08;;;;;;;2.97;2.78;;;17.70;99.90;;;;;;5013390;28;20061;-50
2023/05/14 10:57:37;;;;;;;4.00;2.88;;;17.80;99.90;;;;;;5013566;28;20033;-46
2023/05/14 11:00:06;;;;;;;2.65;2.45;;;17.70;99.70;;;;;;5013699;28;20372;-51
2023/05/14 11:02:39;;;;;;;3.75;2.78;;;17.70;99.50;;;;;;5013555;28;20026;-49
2023/05/14 11:05:08;;;;;;;3.58;2.85;;;17.70;99.90;;;;;;5012033;28;20049;-48
2023/05/14 11:07:38;;;;;;;3.30;3.00;;;17.70;99.70;;;;;;5012899;28;20074;-50
2023/05/14 11:10:04;;;;;;;2.97;2.55;;;17.60;99.50;;;;;;5012512;28;20485;-51
2023/05/14 11:12:31;;;;;;;3.05;2.30;;;17.70;99.50;;;;;;5011536;28;20029;-53
2023/05/14 11:14:58;;;;;;;3.15;2.95;;;17.80;99.30;;;;;;5012972;28;20037;-50
2023/05/14 11:17:25;;;;;;;3.13;2.80;;;17.60;99.00;;;;;;5011971;28;20521;-50
2023/05/14 11:19:50;;;;;;;2.58;2.38;;;17.50;99.00;;;;;;5013124;28;20034;-52
2023/05/14 11:22:16;;;;;;;2.60;2.40;;;17.50;99.00;;;;;;5012946;28;20032;-53
2023/05/14 11:24:42;;;;;;;4.00;2.40;;;17.60;99.20;;;;;;5012847;28;20017;-51
2023/05/14 11:27:08;;;;;;;4.35;2.40;;;17.80;99.30;;;;;;5012838;28;20033;-49
2023/05/14 11:29:35;;;;;;;2.45;2.35;;;18.00;98.90;;;;;;5012004;28;20514;-50
2023/05/14 11:32:05;;;;;;;2.30;2.17;;;18.10;98.60;;;;;;4993116;28;20037;-51
2023/05/14 11:34:32;;;;;;;3.05;2.17;;;18.10;97.90;;;;;;5008921;28;20037;-50
2023/05/14 11:36:57;;;;;;;3.00;2.70;;;18.20;97.50;;;;;;5012343;28;20088;-47
2023/05/14 11:39:23;;;;;;;2.45;2.35;;;18.20;97.90;;;;;;5011620;28;20022;-49
2023/05/14 11:41:48;;;;;;;4.75;2.28;;;18.20;98.40;;;;;;5012277;28;20175;-48
2023/05/14 11:44:14;;;;;;;2.30;2.13;;;18.30;97.20;;;;;;5011257;28;20021;-47
2023/05/14 11:46:39;;;;;;;2.28;1.95;;;18.30;96.70;;;;;;5012038;28;20030;-51
2023/05/14 11:49:05;;;;;;;2.38;1.73;;;18.30;97.50;;;;;;5011139;28;20052;-50
2023/05/14 11:51:31;;;;;;;2.90;2.08;;;18.50;96.70;;;;;;5012460;28;20026;-52
2023/05/14 11:53:59;;;;;;;2.20;2.00;;;18.60;96.80;;;;;;5010449;28;20505;-48
2023/05/14 11:56:25;;;;;;;3.80;3.50;;;18.70;96.20;;;;;;5012967;28;20466;-46
2023/05/14 11:58:57;;;;;;;2.78;2.58;;;18.70;95.80;;;;;;5011897;28;20073;-48
2023/05/14 12:01:22;;;;;;;2.45;2.25;;;18.60;96.60;;;;;;5011842;28;20057;-48
2023/05/14 12:03:49;;;;;;;7.70;4.38;;;18.70;96.00;;;;;;5012382;28;20544;-49
2023/05/14 12:06:15;;;;;;;12.60;10.00;;;18.70;96.10;;;;;;5012504;28;20030;-46
2023/05/14 12:08:40;;;;;;;2.03;1.92;;;18.80;96.00;;;;;;5011851;28;20036;-46
2023/05/14 12:11:08;;;;;;;2.10;2.00;;;18.70;95.20;;;;;;5012151;28;20026;-49
2023/05/14 12:13:35;;;;;;;2.78;1.92;;;18.70;95.90;;;;;;5011205;28;20064;-48
2023/05/14 12:16:01;;;;;;;5.00;1.58;;;18.90;95.80;;;;;;5011807;28;20026;-46
2023/05/14 12:18:29;;;;;;;2.00;1.90;;;18.90;95.60;;;;;;5011599;28;20060;-49
2023/05/14 12:21:00;;;;;;;4.78;1.95;;;19.00;95.40;;;;;;5011513;28;20032;-46
2023/05/14 12:23:30;;;;;;;1.90;1.80;;;19.10;95.40;;;;;;5012089;28;20077;-45
2023/05/14 12:26:04;;;;;;;2.33;2.13;;;19.20;94.90;;;;;;5011393;28;20022;-50
2023/05/14 12:28:31;;;;;;;1.73;1.63;;;19.20;95.40;;;;;;5010585;28;20033;-46
2023/05/14 12:30:57;;;;;;;2.17;2.08;;;19.30;95.60;;;;;;5011887;28;20146;-49
2023/05/14 12:33:25;;;;;;;3.00;2.35;;;19.20;95.40;;;;;;5012063;28;20022;-46
2023/05/14 12:35:52;;;;;;;2.47;2.10;;;19.40;95.20;;;;;;5011869;28;20030;-47
2023/05/14 12:38:18;;;;;;;2.80;1.63;;;19.30;95.40;;;;;;5011886;28;20421;-47
2023/05/14 12:40:43;;;;;;;2.05;1.85;;;19.50;95.20;;;;;;5011607;28;20030;-44